Time;durP1;ratioP1;P1;durP2;ratioP2;P2;SDS_P1;SDS_P2;PMS_P1;PMS_P2;Temp;Humidity;BMP_temperature;BMP_pressure;BME280_temperature;BME280_humidity;BME280_pressure;Samples;Min_cycle;Max_cycle;Signal;HPM_P1;HPM_P2
2024/03/29 00:02:27;;;;;;;4.97;0.80;;;;;;;7.65;63.43;98347.66;10311735;28;20039;-79
2024/03/29 00:07:27;;;;;;;5.70;1.42;;;;;;;7.65;63.47;98343.19;10313772;28;20058;-78
2024/03/29 00:12:28;;;;;;;4.55;0.63;;;;;;;7.57;63.47;98337.78;10326857;28;20630;-78
2024/03/29 00:17:29;;;;;;;4.68;0.60;;;;;;;7.74;62.64;98336.06;10353113;28;20046;-78
2024/03/29 00:22:29;;;;;;;2.28;0.73;;;;;;;7.67;62.81;98325.13;10322231;28;20595;-79
2024/03/29 00:27:30;;;;;;;5.70;0.90;;;;;;;7.76;62.55;98331.38;10302195;28;20603;-78
2024/03/29 00:32:31;;;;;;;5.05;0.80;;;;;;;7.59;63.19;98330.41;10305295;28;20054;-80
2024/03/29 00:37:32;;;;;;;2.65;0.70;;;;;;;7.62;62.88;98339.97;10313726;28;20047;-77
2024/03/29 00:42:33;;;;;;;2.63;0.52;;;;;;;7.62;62.77;98340.78;10309130;28;20113;-78
2024/03/29 00:47:33;;;;;;;4.47;0.98;;;;;;;7.66;62.68;98331.50;10320967;28;20098;-78
2024/03/29 00:52:34;;;;;;;2.33;0.70;;;;;;;7.61;62.61;98327.59;10330521;28;20039;-78
2024/03/29 00:57:35;;;;;;;4.38;0.68;;;;;;;7.68;62.33;98329.50;10310590;28;20042;-77
2024/03/29 01:02:36;;;;;;;3.42;0.90;;;;;;;7.67;61.98;98330.47;10295232;28;20057;-77
2024/03/29 01:07:36;;;;;;;2.83;0.77;;;;;;;7.67;61.91;98314.44;10296092;28;20140;-77
2024/03/29 01:12:39;;;;;;;3.05;0.63;;;;;;;7.69;61.73;98315.13;10326848;28;20046;-78
2024/03/29 01:17:39;;;;;;;;;;;;;;;7.58;61.68;98309.22;10333564;28;20049;-77
2024/03/29 01:22:40;;;;;;;1.75;0.57;;;;;;;7.58;61.05;98314.56;10304127;28;20333;-78
2024/03/29 01:27:41;;;;;;;5.55;0.82;;;;;;;7.69;60.38;98325.00;10307606;28;20054;-77
2024/03/29 01:32:41;;;;;;;1.85;0.57;;;;;;;7.76;60.05;98339.41;10293862;28;20047;-77
2024/03/29 01:37:42;;;;;;;2.72;0.45;;;;;;;7.77;59.88;98337.59;10307852;28;20050;-77
2024/03/29 01:42:43;;;;;;;6.05;0.80;;;;;;;7.66;59.75;98344.03;10298915;28;20121;-78
2024/03/29 01:47:44;;;;;;;1.38;0.40;;;;;;;7.77;59.46;98335.75;10291535;28;20505;-77
2024/03/29 01:52:45;;;;;;;4.45;0.73;;;;;;;7.79;59.14;98341.78;10289766;28;20265;-77
2024/03/29 01:57:46;;;;;;;3.53;0.93;;;;;;;7.73;59.18;98327.22;10298395;28;20078;-77
2024/03/29 02:02:47;;;;;;;4.22;1.05;;;;;;;7.69;59.67;98325.84;10305532;28;20074;-77
2024/03/29 02:07:48;;;;;;;4.53;1.02;;;;;;;7.52;60.61;98317.88;10304044;28;20054;-78
2024/03/29 02:12:49;;;;;;;4.50;1.08;;;;;;;7.34;61.82;98315.19;10302371;28;20039;-79
2024/03/29 02:17:51;;;;;;;1.75;0.80;;;;;;;7.16;62.85;98304.50;10284297;28;20478;-79
2024/03/29 02:23:02;;;;;;;4.18;0.80;;;;;;;7.05;62.95;98309.13;10288757;28;20049;-78
2024/03/29 02:28:03;;;;;;;3.33;0.73;;;;;;;7.05;62.88;98297.59;10308295;28;20125;-78
2024/03/29 02:33:04;;;;;;;3.53;0.85;;;;;;;7.19;62.09;98296.22;10294868;28;20073;-78
2024/03/29 02:38:05;;;;;;;3.47;0.60;;;;;;;7.32;61.40;98277.13;10307535;28;20096;-77
2024/03/29 02:43:06;;;;;;;1.42;0.90;;;;;;;7.43;61.17;98260.84;10317842;28;20093;-79
2024/03/29 02:48:06;;;;;;;8.07;1.48;;;;;;;7.27;62.10;98253.56;10288687;28;20051;-78
2024/03/29 02:53:07;;;;;;;5.00;0.95;;;;;;;7.28;62.20;98256.06;10318628;28;20053;-78
2024/03/29 02:58:08;;;;;;;3.72;0.80;;;;;;;7.15;63.31;98255.63;10303331;28;20054;-78
2024/03/29 03:03:09;;;;;;;4.75;0.93;;;;;;;7.05;64.06;98265.56;10304421;28;20101;-77
2024/03/29 03:13:29;;;;;;;4.22;1.00;;;;;;;6.95;65.74;98280.81;10301632;28;20047;-78
2024/03/29 03:18:29;;;;;;;6.68;0.93;;;;;;;7.02;65.62;98276.53;10314554;28;20058;-78
2024/03/29 03:23:30;;;;;;;3.65;0.60;;;;;;;7.05;65.69;98266.41;10305983;28;20043;-78
2024/03/29 03:28:31;;;;;;;1.98;0.93;;;;;;;7.10;65.82;98265.91;10297443;28;20045;-78
2024/03/29 03:33:32;;;;;;;1.63;0.57;;;;;;;7.25;65.34;98268.91;10294064;28;20064;-78
2024/03/29 03:38:34;;;;;;;1.80;0.70;;;;;;;7.38;64.51;98281.88;10296255;28;20113;-78
2024/03/29 03:43:35;;;;;;;2.70;0.85;;;;;;;7.63;62.72;98278.38;10315050;28;20042;-79
2024/03/29 03:48:36;;;;;;;2.70;1.13;;;;;;;7.71;61.86;98286.44;10314652;28;20061;-79
2024/03/29 03:53:36;;;;;;;1.40;0.70;;;;;;;7.90;61.29;98272.03;10298133;28;20046;-78
2024/03/29 03:58:37;;;;;;;3.35;0.70;;;;;;;7.87;60.97;98283.03;10307128;28;20072;-77
2024/03/29 04:03:39;;;;;;;2.85;0.77;;;;;;;8.11;60.00;98295.66;10293744;28;20043;-78
2024/03/29 04:08:40;;;;;;;4.65;0.73;;;;;;;8.14;59.47;98292.69;10288952;28;20043;-78
2024/03/29 04:13:43;;;;;;;2.35;1.00;;;;;;;8.12;58.86;98296.53;10285391;28;20163;-77
2024/03/29 04:18:43;;;;;;;0.68;0.55;;;;;;;8.20;58.81;98319.78;10303743;28;20050;-78
2024/03/29 04:23:44;;;;;;;3.15;0.60;;;;;;;8.37;58.85;98306.34;10316398;28;20046;-78
2024/03/29 04:28:45;;;;;;;2.28;0.32;;;;;;;8.09;62.34;98327.09;10309134;28;20049;-78
2024/03/29 04:33:45;;;;;;;2.38;0.65;;;;;;;8.00;65.66;98327.19;10303455;28;20042;-78
2024/03/29 04:38:47;;;;;;;3.22;0.60;;;;;;;7.68;70.33;98353.56;10313360;28;20046;-78
2024/03/29 04:43:47;;;;;;;1.88;0.40;;;;;;;7.62;71.25;98347.97;10306879;28;20665;-78
2024/03/29 04:48:50;;;;;;;4.30;0.70;;;;;;;7.56;75.05;98357.44;10314968;28;20102;-77
2024/03/29 04:53:51;;;;;;;1.85;0.70;;;;;;;7.30;79.19;98367.25;10308975;28;20497;-78
2024/03/29 04:58:51;;;;;;;2.72;0.60;;;;;;;7.07;83.53;98375.69;10289083;28;20050;-78
2024/03/29 05:03:52;;;;;;;1.40;0.65;;;;;;;6.87;88.42;98388.31;10316563;28;20041;-78
2024/03/29 05:08:53;;;;;;;3.17;0.95;;;;;;;6.79;93.23;98390.84;10306032;28;20402;-78
2024/03/29 05:13:54;;;;;;;3.65;1.33;;;;;;;6.62;96.11;98396.00;10306609;28;20034;-78
2024/03/29 05:18:55;;;;;;;4.82;1.00;;;;;;;6.63;100.00;98372.81;10286803;28;20078;-78
2024/03/29 05:23:55;;;;;;;2.38;0.85;;;;;;;6.63;100.00;98380.81;10304775;28;20067;-78
2024/03/29 05:28:58;;;;;;;2.88;0.50;;;;;;;6.67;100.00;98363.56;10295500;28;20045;-78
2024/03/29 05:34:00;;;;;;;5.85;1.17;;;;;;;6.63;100.00;98373.66;10303059;28;20082;-78
2024/03/29 05:39:00;;;;;;;3.63;0.75;;;;;;;6.70;100.00;98394.44;10289318;28;20121;-78
2024/03/29 05:44:03;;;;;;;6.63;0.95;;;;;;;6.63;100.00;98360.31;10314504;28;20378;-78
2024/03/29 05:49:04;;;;;;;2.92;1.10;;;;;;;6.64;100.00;98355.84;10295136;28;20046;-78
2024/03/29 05:54:05;;;;;;;2.08;0.77;;;;;;;6.55;100.00;98359.38;10317946;28;20050;-77
2024/03/29 05:59:06;;;;;;;4.55;0.70;;;;;;;6.49;100.00;98354.66;10350980;28;20106;-77
2024/03/29 06:04:14;;;;;;;3.28;0.93;;;;;;;6.38;100.00;98353.00;10328336;28;20035;-78
2024/03/29 06:09:16;;;;;;;3.60;1.10;;;;;;;6.32;100.00;98348.28;10311244;28;20080;-78
2024/03/29 06:19:36;;;;;;;5.75;0.88;;;;;;;6.43;100.00;98347.25;10305175;28;20038;-78
2024/03/29 06:24:38;;;;;;;2.80;0.70;;;;;;;6.39;100.00;98344.88;10284959;28;20046;-78
2024/03/29 06:29:39;;;;;;;4.72;1.00;;;;;;;6.41;100.00;98339.38;10304656;28;20031;-78
2024/03/29 06:34:40;;;;;;;4.88;1.45;;;;;;;6.41;100.00;98304.72;10312718;28;20145;-77
2024/03/29 06:39:43;;;;;;;5.00;1.33;;;;;;;6.31;100.00;98295.94;10305700;28;20085;-77
2024/03/29 06:44:44;;;;;;;3.75;1.63;;;;;;;6.38;100.00;98297.00;10312093;28;20039;-78
2024/03/29 06:49:45;;;;;;;7.63;3.05;;;;;;;6.34;100.00;98285.81;10316168;28;20035;-77
2024/03/29 06:54:46;;;;;;;7.60;2.13;;;;;;;6.44;100.00;98276.91;10289187;28;20043;-77
2024/03/29 06:59:47;;;;;;;4.78;2.75;;;;;;;6.47;100.00;98274.78;10313732;28;20035;-77
2024/03/29 07:04:47;;;;;;;8.60;2.67;;;;;;;6.38;100.00;98276.50;10305190;28;20038;-77
2024/03/29 07:09:48;;;;;;;7.82;2.83;;;;;;;6.30;100.00;98281.75;10301712;28;20133;-77
2024/03/29 07:14:49;;;;;;;7.38;2.63;;;;;;;6.28;100.00;98280.22;10310832;28;20067;-77
2024/03/29 07:19:49;;;;;;;4.93;2.55;;;;;;;6.21;100.00;98274.66;10287183;28;20055;-77
2024/03/29 07:24:50;;;;;;;5.07;2.00;;;;;;;6.25;100.00;98265.34;10309185;28;20247;-77
2024/03/29 07:29:51;;;;;;;5.28;2.03;;;;;;;6.34;100.00;98252.97;10314980;28;20446;-78
2024/03/29 07:34:52;;;;;;;4.97;1.83;;;;;;;6.39;100.00;98253.38;10296801;28;20043;-78
2024/03/29 07:39:53;;;;;;;6.28;1.73;;;;;;;6.62;100.00;98241.28;10330089;28;20138;-78
2024/03/29 07:44:54;;;;;;;3.25;1.50;;;;;;;6.74;100.00;98228.53;10293290;28;20043;-77
2024/03/29 07:49:54;;;;;;;3.83;1.42;;;;;;;6.87;100.00;98235.34;10311440;28;20051;-79
2024/03/29 07:54:55;;;;;;;6.70;1.50;;;;;;;7.20;100.00;98249.84;10313689;28;20042;-78
2024/03/29 07:59:56;;;;;;;4.25;1.30;;;;;;;7.59;100.00;98255.63;10306884;28;20521;-78
2024/03/29 08:04:58;;;;;;;4.55;0.90;;;;;;;8.02;100.00;98242.34;10300209;28;20045;-78
2024/03/29 08:09:59;;;;;;;4.20;1.00;;;;;;;8.21;100.00;98236.72;10300579;28;20054;-80
2024/03/29 08:14:59;;;;;;;2.13;0.75;;;;;;;7.77;98.40;98244.03;10311482;28;20038;-80
2024/03/29 08:20:00;;;;;;;1.77;0.90;;;;;;;7.81;100.00;98259.59;10311097;28;20053;-78
2024/03/29 08:25:01;;;;;;;2.55;0.90;;;;;;;7.72;100.00;98282.75;10300558;28;20140;-78
2024/03/29 08:30:02;;;;;;;2.45;0.77;;;;;;;7.65;100.00;98292.41;10298303;28;20050;-78
2024/03/29 08:35:03;;;;;;;1.52;0.80;;;;;;;7.70;100.00;98282.06;10304127;28;20041;-78
2024/03/29 08:40:04;;;;;;;2.53;0.90;;;;;;;7.70;100.00;98287.41;10308077;28;20050;-78
2024/03/29 08:45:07;;;;;;;2.67;0.80;;;;;;;7.94;100.00;98288.56;10331457;28;20042;-78
2024/03/29 08:50:09;;;;;;;3.10;1.00;;;;;;;8.38;100.00;98267.03;10332862;28;20042;-78
2024/03/29 08:55:09;;;;;;;5.40;0.95;;;;;;;8.23;100.00;98274.84;10323693;28;20090;-79
2024/03/29 09:00:11;;;;;;;1.42;0.70;;;;;;;8.16;100.00;98277.31;10289917;28;20544;-79
2024/03/29 09:05:11;;;;;;;2.72;0.90;;;;;;;8.42;100.00;98271.09;10327121;28;20034;-79
2024/03/29 09:10:13;;;;;;;1.00;0.80;;;;;;;8.45;100.00;98260.06;10314713;28;20039;-79
2024/03/29 09:15:15;;;;;;;2.72;0.50;;;;;;;8.89;97.86;98259.03;10315732;28;20494;-81
2024/03/29 09:20:16;;;;;;;2.95;0.70;;;;;;;8.92;93.25;98272.06;10307191;28;20145;-79
2024/03/29 09:25:18;;;;;;;1.58;0.98;;;;;;;9.22;94.89;98271.44;10322449;28;20037;-78
2024/03/29 09:30:19;;;;;;;2.15;0.70;;;;;;;9.26;90.86;98275.44;10309459;28;20498;-79
2024/03/29 09:35:20;;;;;;;2.40;0.88;;;;;;;9.42;92.02;98268.41;10325438;28;20041;-79
2024/03/29 09:40:23;;;;;;;1.02;0.80;;;;;;;9.50;92.40;98279.94;10311403;28;20046;-79
2024/03/29 09:45:24;;;;;;;2.85;0.73;;;;;;;9.32;94.28;98295.34;10295244;28;20042;-78
2024/03/29 09:50:25;;;;;;;2.10;0.90;;;;;;;9.23;94.53;98299.03;10304922;28;20039;-79
2024/03/29 09:55:28;;;;;;;2.65;0.88;;;;;;;9.58;92.58;98289.00;10296438;28;20038;-78
2024/03/29 10:00:28;;;;;;;1.23;0.88;;;;;;;10.16;90.75;98274.50;10287808;28;20057;-79
2024/03/29 10:05:30;;;;;;;1.98;0.98;;;;;;;10.04;87.23;98287.44;10317802;28;20126;-80
2024/03/29 10:10:35;;;;;;;0.70;0.70;;;;;;;10.19;88.06;98286.72;10314560;28;20046;-79
2024/03/29 10:15:38;;;;;;;1.80;0.75;;;;;;;10.50;86.02;98287.59;10315141;28;20329;-79
2024/03/29 10:20:39;;;;;;;1.70;0.80;;;;;;;10.83;84.20;98282.03;10325526;28;20038;-80
2024/03/29 10:25:43;;;;;;;0.70;0.70;;;;;;;10.92;81.94;98278.31;10304912;28;20700;-81
2024/03/29 10:30:43;;;;;;;2.00;0.90;;;;;;;10.73;83.47;98287.66;10322235;28;20051;-81
2024/03/29 10:35:44;;;;;;;1.05;0.60;;;;;;;11.22;81.53;98291.91;10353752;28;20034;-80
2024/03/29 10:40:45;;;;;;;2.25;0.90;;;;;;;10.99;82.09;98303.44;10337574;28;20050;-80
2024/03/29 10:45:48;;;;;;;0.95;0.55;;;;;;;11.25;82.16;98297.75;10295324;28;20042;-79
2024/03/29 10:50:51;;;;;;;0.70;0.70;;;;;;;11.54;78.52;98306.09;10306774;28;20054;-79
2024/03/29 10:55:56;;;;;;;1.02;0.82;;;;;;;11.42;80.95;98306.53;10329758;28;20039;-80
2024/03/29 11:00:58;;;;;;;1.85;0.70;;;;;;;11.08;80.73;98314.13;10299680;28;20065;-82
2024/03/29 11:06:04;;;;;;;;;;;;;;;11.09;79.79;98307.75;10322234;28;20045;-79
2024/03/29 11:11:07;;;;;;;1.13;0.70;;;;;;;11.08;79.52;98317.69;10327390;28;20385;-79
2024/03/29 11:16:08;;;;;;;1.85;0.65;;;;;;;10.82;79.90;98326.88;10315703;28;20120;-80
2024/03/29 11:21:10;;;;;;;1.25;0.60;;;;;;;11.21;79.56;98320.63;10324578;28;20050;-79
2024/03/29 11:26:11;;;;;;;;;;;;;;;11.32;77.44;98323.91;10322957;28;20043;-80
2024/03/29 11:31:14;;;;;;;0.95;0.50;;;;;;;11.23;76.90;98317.75;10310318;28;19987;-80
2024/03/29 11:36:21;;;;;;;0.85;0.60;;;;;;;11.81;75.25;98300.13;10317886;28;20031;-80
2024/03/29 11:41:27;;;;;;;1.25;0.80;;;;;;;12.41;73.31;98302.91;10317189;28;20031;-78
2024/03/29 11:46:33;;;;;;;1.40;1.00;;;;;;;12.44;72.89;98308.72;10326562;28;20045;-80
2024/03/29 11:51:33;;;;;;;2.13;0.80;;;;;;;12.56;71.92;98309.09;10305879;28;20414;-81
2024/03/29 11:56:35;;;;;;;0.70;0.60;;;;;;;12.14;71.42;98316.78;10312476;28;20042;-80
2024/03/29 12:01:39;;;;;;;0.40;0.40;;;;;;;11.63;73.25;98302.34;10312133;28;20061;-80
2024/03/29 12:06:40;;;;;;;1.42;0.80;;;;;;;12.30;71.82;98321.19;10295427;28;20038;-80
2024/03/29 12:11:45;;;;;;;1.08;0.80;;;;;;;12.17;71.63;98348.69;10297432;28;20038;-79
2024/03/29 12:16:46;;;;;;;0.82;0.28;;;;;;;12.60;69.26;98353.50;10315025;28;20097;-80
2024/03/29 12:21:47;;;;;;;0.77;0.50;;;;;;;12.60;69.67;98340.84;10317750;28;20034;-79
2024/03/29 12:26:49;;;;;;;0.32;0.32;;;;;;;12.76;67.33;98328.22;10315823;28;20506;-80
2024/03/29 12:32:00;;;;;;;0.60;0.50;;;;;;;12.77;67.37;98322.63;10330290;28;20038;-78
2024/03/29 12:37:01;;;;;;;2.08;0.40;;;;;;;13.74;65.18;98334.88;10347672;28;20046;-79
2024/03/29 12:42:02;;;;;;;0.52;0.52;;;;;;;14.37;62.01;98349.25;10339289;28;20035;-78
2024/03/29 12:47:04;;;;;;;0.65;0.50;;;;;;;14.40;60.91;98395.81;10349205;28;20038;-79
2024/03/29 12:52:05;;;;;;;1.77;0.50;;;;;;;13.85;62.18;98382.06;10345053;28;20030;-79
2024/03/29 12:57:06;;;;;;;1.48;0.60;;;;;;;13.36;63.73;98389.03;10316965;28;20662;-80
2024/03/29 13:02:07;;;;;;;0.52;0.50;;;;;;;13.66;62.68;98405.16;10316110;28;20042;-80
2024/03/29 13:07:07;;;;;;;0.63;0.50;;;;;;;12.97;64.80;98395.63;10309344;28;20710;-79
2024/03/29 13:12:08;;;;;;;0.93;0.77;;;;;;;13.02;65.57;98395.03;10306470;28;20086;-81
2024/03/29 13:17:09;;;;;;;0.40;0.40;;;;;;;13.31;63.33;98409.50;10315069;28;20117;-80
2024/03/29 13:22:10;;;;;;;2.08;0.70;;;;;;;14.55;59.81;98389.25;10318914;28;20034;-80
2024/03/29 13:27:12;;;;;;;1.08;0.50;;;;;;;14.62;59.14;98378.50;10314762;28;20165;-80
2024/03/29 13:32:13;;;;;;;0.95;0.43;;;;;;;15.22;56.78;98381.47;10310548;28;20042;-80
2024/03/29 13:37:14;;;;;;;1.23;0.70;;;;;;;14.52;59.16;98383.44;10313478;28;20038;-80
2024/03/29 13:42:14;;;;;;;0.85;0.47;;;;;;;14.14;60.68;98394.56;10310187;28;20030;-79
2024/03/29 13:47:16;;;;;;;0.80;0.43;;;;;;;15.15;57.05;98372.50;10306945;28;20074;-80
2024/03/29 13:52:16;;;;;;;0.88;0.40;;;;;;;14.47;56.90;98380.50;10289391;28;20050;-79
2024/03/29 13:57:17;;;;;;;1.48;1.17;;;;;;;14.68;56.87;98385.81;10311357;28;20051;-79
2024/03/29 14:02:19;;;;;;;0.82;0.40;;;;;;;14.35;57.81;98386.41;10307242;28;20046;-79
2024/03/29 14:07:20;;;;;;;0.87;0.50;;;;;;;14.49;58.58;98403.56;10313549;28;20054;-80
2024/03/29 14:12:21;;;;;;;2.45;0.70;;;;;;;14.99;57.31;98408.84;10314613;28;20306;-79
2024/03/29 14:17:22;;;;;;;1.05;0.55;;;;;;;14.26;58.58;98400.25;10308012;28;20062;-79
2024/03/29 14:22:23;;;;;;;1.17;0.43;;;;;;;14.35;58.14;98399.09;10318092;28;20116;-79
2024/03/29 14:27:24;;;;;;;0.47;0.30;;;;;;;15.85;55.16;98390.19;10340919;28;20080;-78
2024/03/29 14:32:25;;;;;;;0.90;0.50;;;;;;;15.43;53.51;98399.47;10321599;28;20521;-79
2024/03/29 14:37:26;;;;;;;2.10;0.60;;;;;;;16.17;52.22;98393.09;10320103;28;20051;-79
2024/03/29 14:42:27;;;;;;;0.32;0.28;;;;;;;15.76;50.93;98426.59;10296360;28;20050;-79
2024/03/29 14:47:28;;;;;;;2.30;0.60;;;;;;;15.43;52.63;98421.94;10321834;28;20045;-79
2024/03/29 14:52:28;;;;;;;0.57;0.40;;;;;;;15.50;53.09;98397.63;10332067;28;20042;-79
2024/03/29 14:57:30;;;;;;;0.35;0.35;;;;;;;14.68;56.03;98395.78;10319804;28;20050;-79
2024/03/29 15:02:30;;;;;;;1.05;0.50;;;;;;;14.01;57.26;98419.56;10323421;28;20054;-79
2024/03/29 15:07:32;;;;;;;1.05;0.43;;;;;;;14.24;57.46;98402.31;10292895;28;20053;-78
2024/03/29 15:12:33;;;;;;;0.45;0.38;;;;;;;14.11;58.18;98414.69;10321512;28;20113;-78
2024/03/29 15:17:34;;;;;;;0.77;0.38;;;;;;;13.42;60.00;98426.03;10321525;28;20112;-78
2024/03/29 15:22:36;;;;;;;1.13;0.38;;;;;;;13.34;60.20;98415.34;10332406;28;20050;-78
2024/03/29 15:32:56;;;;;;;0.45;0.45;;;;;;;13.51;61.97;98450.19;10302354;28;20043;-79
2024/03/29 15:37:57;;;;;;;0.80;0.57;;;;;;;13.60;63.19;98451.75;10321137;28;20089;-78
2024/03/29 15:42:58;;;;;;;1.08;0.50;;;;;;;13.22;64.37;98455.44;10315020;28;20041;-79
2024/03/29 15:47:59;;;;;;;1.00;0.25;;;;;;;13.69;62.68;98480.28;10309352;28;20035;-79
2024/03/29 15:53:00;;;;;;;0.57;0.50;;;;;;;13.72;62.54;98479.91;10327926;28;20732;-80
2024/03/29 15:58:00;;;;;;;0.32;0.25;;;;;;;13.32;63.91;98463.22;10307133;28;20054;-79
2024/03/29 16:03:03;;;;;;;0.90;0.45;;;;;;;13.66;63.18;98478.81;10319420;28;20034;-80
2024/03/29 16:08:04;;;;;;;0.57;0.20;;;;;;;13.31;64.37;98476.91;10328660;28;20057;-79
2024/03/29 16:13:05;;;;;;;0.45;0.30;;;;;;;13.78;61.97;98489.94;10324250;28;20814;-80
2024/03/29 16:18:06;;;;;;;0.70;0.40;;;;;;;14.73;58.31;98494.16;10320684;28;20041;-80
2024/03/29 16:23:07;;;;;;;1.35;0.40;;;;;;;13.66;62.20;98507.66;10326531;28;20034;-79
2024/03/29 16:28:11;;;;;;;0.93;0.40;;;;;;;13.35;64.01;98495.19;10310343;28;20051;-80
2024/03/29 16:33:11;;;;;;;2.05;0.50;;;;;;;13.39;64.11;98487.63;10313638;28;20039;-80
2024/03/29 16:38:12;;;;;;;1.15;0.40;;;;;;;13.25;64.19;98500.06;10319387;28;20046;-80
2024/03/29 16:43:13;;;;;;;1.25;0.70;;;;;;;12.90;66.21;98502.47;10303665;28;20046;-79
2024/03/29 16:48:14;;;;;;;0.80;0.63;;;;;;;12.87;65.50;98500.16;10305390;28;20553;-80
2024/03/29 16:53:14;;;;;;;0.60;0.40;;;;;;;13.10;64.98;98491.13;10315880;28;20050;-79
2024/03/29 16:58:15;;;;;;;1.63;0.40;;;;;;;12.68;65.90;98498.00;10306799;28;20080;-79
2024/03/29 17:03:16;;;;;;;0.73;0.60;;;;;;;12.55;67.14;98514.78;10313259;28;20046;-79
2024/03/29 17:08:17;;;;;;;0.80;0.57;;;;;;;12.75;66.84;98526.72;10301422;28;20129;-79
2024/03/29 17:13:18;;;;;;;0.90;0.70;;;;;;;12.76;66.73;98541.84;10323000;28;20425;-79
2024/03/29 17:18:18;;;;;;;0.95;0.60;;;;;;;12.58;67.13;98528.72;10299992;28;20051;-80
2024/03/29 17:23:19;;;;;;;0.90;0.65;;;;;;;12.57;67.49;98545.91;10304696;28;20519;-80
2024/03/29 17:28:20;;;;;;;1.60;0.60;;;;;;;12.34;68.13;98545.94;10305125;28;20050;-80
2024/03/29 17:33:21;;;;;;;2.90;0.95;;;;;;;12.49;68.43;98521.72;10316069;28;20054;-79
2024/03/29 17:38:22;;;;;;;1.38;1.27;;;;;;;12.63;68.03;98517.41;10309152;28;20054;-78
2024/03/29 17:43:22;;;;;;;0.95;0.80;;;;;;;12.53;68.30;98525.75;10318300;28;20050;-79
2024/03/29 17:48:23;;;;;;;1.40;1.08;;;;;;;12.47;68.20;98528.31;10311537;28;20050;-77
2024/03/29 17:53:24;;;;;;;2.00;0.63;;;;;;;12.33;68.72;98555.00;10322651;28;20042;-79
2024/03/29 17:58:25;;;;;;;1.40;0.75;;;;;;;12.37;68.41;98585.97;10302041;28;20075;-77
2024/03/29 18:03:26;;;;;;;0.85;0.77;;;;;;;12.38;68.37;98590.31;10292654;28;20054;-78
2024/03/29 18:08:26;;;;;;;0.90;0.70;;;;;;;12.33;68.59;98592.69;10295355;28;20038;-78
2024/03/29 18:13:28;;;;;;;0.70;0.70;;;;;;;12.46;67.81;98572.44;10301227;28;20050;-79
2024/03/29 18:18:33;;;;;;;1.98;0.90;;;;;;;12.12;69.01;98566.41;10315558;28;20039;-78
2024/03/29 18:23:33;;;;;;;0.70;0.65;;;;;;;12.42;67.88;98554.94;10310960;28;20039;-79
2024/03/29 18:28:37;;;;;;;0.98;0.90;;;;;;;12.32;68.31;98563.28;10307757;28;20046;-79
2024/03/29 18:33:38;;;;;;;3.05;1.08;;;;;;;12.27;68.95;98562.94;10330355;28;20043;-79
2024/03/29 18:38:41;;;;;;;1.38;1.00;;;;;;;12.32;68.73;98563.28;10306622;28;20524;-78
2024/03/29 18:43:41;;;;;;;;;;;;;;;12.28;69.16;98562.78;10298293;28;20043;-79
2024/03/29 18:48:42;;;;;;;1.25;1.02;;;;;;;12.12;69.47;98561.03;10297545;28;19922;-79
2024/03/29 18:53:44;;;;;;;2.63;1.40;;;;;;;12.09;69.50;98560.53;10313290;28;20047;-80
2024/03/29 18:58:45;;;;;;;2.53;1.30;;;;;;;12.12;69.78;98595.16;10322423;28;20043;-79
2024/03/29 19:03:47;;;;;;;2.45;1.60;;;;;;;12.13;69.65;98591.47;10329954;28;20040;-79
2024/03/29 19:08:48;;;;;;;;;;;;;;;12.12;69.76;98587.94;10325687;28;20093;-79
2024/03/29 19:13:50;;;;;;;4.47;3.30;;;;;;;12.04;69.93;98598.75;10318015;28;19980;-79
2024/03/29 19:18:50;;;;;;;5.88;2.65;;;;;;;12.00;70.22;98580.44;10318899;28;20042;-80
2024/03/29 19:23:51;;;;;;;2.65;2.20;;;;;;;11.99;71.90;98568.84;10290849;28;20162;-80
2024/03/29 19:28:52;;;;;;;2.85;2.00;;;;;;;11.73;73.53;98588.81;10296244;28;20136;-79
2024/03/29 19:33:53;;;;;;;1.45;1.35;;;;;;;11.60;73.57;98614.59;10308907;28;20042;-78
2024/03/29 19:38:54;;;;;;;2.17;1.23;;;;;;;11.67;73.06;98629.84;10325555;28;20053;-79
2024/03/29 19:43:54;;;;;;;1.58;1.35;;;;;;;11.70;72.82;98617.91;10311100;28;20035;-79
2024/03/29 19:48:55;;;;;;;1.00;0.90;;;;;;;11.68;73.05;98628.00;10285751;28;20122;-79
2024/03/29 19:53:56;;;;;;;1.15;1.05;;;;;;;11.73;72.53;98614.88;10294459;28;20054;-79
2024/03/29 19:58:57;;;;;;;1.25;1.15;;;;;;;11.82;72.11;98607.59;10309552;28;20126;-79
2024/03/29 20:03:57;;;;;;;4.65;1.40;;;;;;;11.88;71.65;98604.22;10310888;28;20031;-81
2024/03/29 20:08:58;;;;;;;2.83;1.33;;;;;;;11.79;71.95;98595.34;10316540;28;20038;-80
2024/03/29 20:13:59;;;;;;;1.13;1.02;;;;;;;11.78;72.14;98588.28;10277728;28;20046;-79
2024/03/29 20:19:05;;;;;;;2.45;1.10;;;;;;;11.76;71.91;98582.25;10319952;28;20038;-80
2024/03/29 20:24:06;;;;;;;1.17;1.08;;;;;;;11.80;71.57;98580.91;10309747;28;20061;-78
2024/03/29 20:29:07;;;;;;;7.28;4.25;;;;;;;11.80;71.70;98590.81;10321793;28;20537;-79
2024/03/29 20:34:08;;;;;;;3.90;3.20;;;;;;;11.84;71.84;98579.50;10325114;28;20082;-79
2024/03/29 20:39:09;;;;;;;5.18;3.80;;;;;;;11.79;72.61;98587.28;10315621;28;20529;-80
2024/03/29 20:44:09;;;;;;;5.63;3.85;;;;;;;11.76;72.91;98619.06;10285641;28;20073;-80
2024/03/29 20:49:10;;;;;;;3.65;3.10;;;;;;;11.75;73.08;98639.75;10312717;28;20709;-77
2024/03/29 20:54:11;;;;;;;3.47;2.22;;;;;;;11.72;73.23;98661.63;10273249;28;20070;-79
2024/03/29 20:59:12;;;;;;;2.97;1.85;;;;;;;11.73;73.41;98656.06;10322562;28;20521;-79
2024/03/29 21:09:32;;;;;;;3.17;2.05;;;;;;;11.70;74.15;98645.66;10317355;28;20046;-79
2024/03/29 21:14:33;;;;;;;1.40;1.30;;;;;;;11.64;74.58;98635.59;10301534;28;20080;-79
2024/03/29 21:19:34;;;;;;;1.50;1.38;;;;;;;11.56;75.65;98648.22;10330824;28;20049;-79
2024/03/29 21:24:35;;;;;;;3.47;2.20;;;;;;;11.58;75.69;98652.44;10296912;28;20069;-79
2024/03/29 21:29:37;;;;;;;1.50;1.30;;;;;;;11.56;75.36;98667.88;10259109;28;20145;-81
2024/03/29 21:34:38;;;;;;;1.30;1.20;;;;;;;11.42;76.50;98696.31;10316539;28;20644;-79
2024/03/29 21:39:38;;;;;;;1.67;1.42;;;;;;;11.48;76.61;98702.84;10302814;28;20137;-79
2024/03/29 21:44:40;;;;;;;1.70;1.40;;;;;;;11.44;76.00;98729.25;10306908;28;20034;-79
2024/03/29 21:49:41;;;;;;;2.25;1.40;;;;;;;11.53;75.45;98730.06;10292679;28;20045;-79
2024/03/29 21:54:43;;;;;;;1.40;1.30;;;;;;;11.64;75.07;98728.88;10304099;28;20035;-80
2024/03/29 21:59:44;;;;;;;2.03;1.83;;;;;;;11.63;74.78;98711.06;10317775;28;20089;-77
2024/03/29 22:04:45;;;;;;;1.92;1.83;;;;;;;11.66;74.81;98716.94;10301539;28;20038;-78
2024/03/29 22:09:45;;;;;;;1.77;1.67;;;;;;;11.65;74.92;98701.78;10317778;28;20046;-79
2024/03/29 22:14:46;;;;;;;2.55;1.70;;;;;;;11.59;75.30;98685.53;10301844;28;20066;-78
2024/03/29 22:19:47;;;;;;;2.80;2.47;;;;;;;11.47;76.52;98682.38;10315056;28;20141;-78
2024/03/29 22:24:48;;;;;;;8.00;5.22;;;;;;;11.32;78.27;98676.84;10324844;28;20402;-79
2024/03/29 22:29:48;;;;;;;7.57;5.47;;;;;;;11.10;80.40;98675.66;10317933;28;20046;-79
2024/03/29 22:34:49;;;;;;;4.15;3.75;;;;;;;11.00;81.71;98673.16;10290140;28;20050;-79
2024/03/29 22:39:51;;;;;;;4.07;3.78;;;;;;;10.95;82.68;98662.06;10286949;28;20058;-80
2024/03/29 22:44:52;;;;;;;5.85;4.57;;;;;;;10.92;83.39;98667.78;10293841;28;20050;-80
2024/03/29 22:49:53;;;;;;;4.70;4.30;;;;;;;10.87;84.23;98666.63;10318645;28;20091;-79
2024/03/29 22:54:54;;;;;;;6.95;4.68;;;;;;;10.89;84.21;98672.63;10317896;28;20042;-80
2024/03/29 22:59:55;;;;;;;5.25;4.75;;;;;;;10.82;85.61;98667.09;10307228;28;20512;-80
2024/03/29 23:04:56;;;;;;;5.90;4.55;;;;;;;10.75;86.79;98672.31;10322932;28;20133;-79
2024/03/29 23:09:57;;;;;;;5.93;5.00;;;;;;;10.79;87.46;98667.44;10306055;28;20047;-80
2024/03/29 23:14:58;;;;;;;5.20;4.75;;;;;;;10.93;86.88;98682.06;10287010;28;20137;-80
2024/03/29 23:19:59;;;;;;;7.30;5.18;;;;;;;10.96;88.26;98722.00;10295801;28;20441;-81
2024/03/29 23:25:04;;;;;;;8.00;5.05;;;;;;;10.92;90.47;98731.44;10295843;28;20066;-80
2024/03/29 23:30:07;;;;;;;5.00;4.60;;;;;;;10.86;91.60;98735.63;10303796;28;20532;-81
2024/03/29 23:35:07;;;;;;;7.20;5.97;;;;;;;10.86;92.38;98742.81;10315696;28;20043;-79
2024/03/29 23:40:08;;;;;;;6.63;6.03;;;;;;;10.84;92.96;98749.19;10350572;28;20097;-78
2024/03/29 23:45:09;;;;;;;6.68;5.85;;;;;;;10.80;93.64;98750.53;10347311;28;20051;-79
2024/03/29 23:50:10;;;;;;;6.40;5.65;;;;;;;10.70;95.82;98749.84;10309997;28;20073;-82